This is the latest recevied weather packets stored in our database for station/object W4CKA. If no packets are shown the sender has not sent any weather packets the latest 10 day(s).
| Time | Temp. | Humidity | Pressure | Rain* | Wind** | Luminosity | Snow |
|---|---|---|---|---|---|---|---|
| 1787876849 | 24.44° C | 87% | 1056.5 hPa | 0 mm | - | 0 W/m² | - |
| 1787876249 | 24.44° C | 86% | 1056.4 hPa | 0 mm | - | 0 W/m² | - |
| 1787875644 | 25° C | 85% | 1056.7 hPa | 0 mm | - | 0 W/m² | - |
| 1787875041 | 25.56° C | 83% | 1056.4 hPa | 0 mm | - | 6 W/m² | - |
| 1787874441 | 26.11° C | 80% | 1056.3 hPa | 0 mm | - | 12 W/m² | - |
| 1787873837 | 27.22° C | 77% | 1056.3 hPa | 0 mm | - | 20 W/m² | - |
| 1787873232 | 27.78° C | 74% | 1056.3 hPa | 0 mm | - | 29 W/m² | - |
| 1787872632 | 27.78° C | 73% | 1056.1 hPa | 0 mm | - | 38 W/m² | - |
| 1787872027 | 28.33° C | 73% | 1056.2 hPa | 0 mm | - | 43 W/m² | - |
| 1787871423 | 28.33° C | 74% | 1055.9 hPa | 0 mm | - | 65 W/m² | - |
| 1787870818 | 27.78° C | 77% | 1055.8 hPa | 0 mm | - | 50 W/m² | - |
| 1787870214 | 27.78° C | 75% | 1055.8 hPa | 0 mm | - | 113 W/m² | - |
| 1787869613 | 28.33° C | 69% | 1055.8 hPa | 0 mm | - | 45 W/m² | - |
| 1787869013 | 28.89° C | 71% | 1055.8 hPa | 0 mm | - | 56 W/m² | - |
| 1787868411 | 30° C | 67% | 1055.9 hPa | 0 mm | - | 79 W/m² | - |
| 1787867807 | 30° C | 70% | 1055.8 hPa | 0 mm | - | 213 W/m² | - |
| 1787867203 | 29.44° C | 71% | 1055.9 hPa | 0 mm | - | 69 W/m² | - |
| 1787866599 | 31.11° C | 64% | 1055.9 hPa | 0 mm | - | 295 W/m² | - |
| 1787865999 | 30.56° C | 70% | 1056 hPa | 0 mm | - | 239 W/m² | - |
| 1787865394 | 30.56° C | 70% | 1056 hPa | 0 mm | - | 86 W/m² | - |
| 1787864791 | 31.11° C | 70% | 1055.9 hPa | 0 mm | - | 391 W/m² | - |
| 1787864191 | 30.56° C | 71% | 1056.2 hPa | 0 mm | - | 322 W/m² | - |
| 1787863589 | 30.56° C | 69% | 1056.1 hPa | 0 mm | - | 373 W/m² | - |
| 1787862987 | 31.11° C | 65% | 1056.2 hPa | 0 mm | - | 356 W/m² | - |
| 1787862382 | 30.56° C | 68% | 1056.3 hPa | 0 mm | - | 368 W/m² | - |
* Rain latest hour (hover to see other rain measurements)
** Current wind speed in m/s (hover to see current wind gust speed)